Time;durP1;ratioP1;P1;durP2;ratioP2;P2;SDS_P1;SDS_P2;PMS_P1;PMS_P2;Temp;Humidity;BMP_temperature;BMP_pressure;BME280_temperature;BME280_humidity;BME280_pressure;Samples;Min_cycle;Max_cycle;Signal;HPM_P1;HPM_P2
2023/02/22 00:00:44;;;;;;;28.02;5.30;;;;;;;8.31;80.41;100973.19;5021885;28;20076;-65
2023/02/22 00:03:17;;;;;;;24.67;4.90;;;;;;;8.30;81.87;100979.34;5006986;28;20219;-64
2023/02/22 00:05:45;;;;;;;27.55;5.25;;;;;;;8.32;82.20;100976.66;5026376;28;20067;-65
2023/02/22 00:08:14;;;;;;;17.20;3.85;;;;;;;8.34;82.50;100970.44;5028129;28;20077;-64
2023/02/22 00:10:41;;;;;;;25.02;5.15;;;;;;;8.36;82.95;100973.88;5018054;28;20057;-64
2023/02/22 00:13:12;;;;;;;27.48;5.55;;;;;;;8.38;82.47;100979.06;5020816;28;20211;-65
2023/02/22 00:15:43;;;;;;;24.52;4.82;;;;;;;8.28;81.20;100968.06;5050780;22;20458;-62
2023/02/22 00:18:14;;;;;;;21.88;4.85;;;;;;;8.28;81.98;100965.44;5002241;28;20093;-60
2023/02/22 00:20:42;;;;;;;33.63;5.28;;;;;;;8.31;82.97;100962.69;5003129;28;20737;-61
2023/02/22 00:23:24;;;;;;;18.05;4.10;;;;;;;8.31;82.55;100962.69;4987684;28;20131;-61
2023/02/22 00:25:51;;;;;;;24.88;4.75;;;;;;;8.34;83.08;100964.34;4999546;28;20145;-61
2023/02/22 00:28:18;;;;;;;22.27;4.25;;;;;;;8.33;81.66;100958.25;5004445;28;20659;-61
2023/02/22 00:30:47;;;;;;;25.80;4.85;;;;;;;8.29;82.17;100953.22;5005393;28;20131;-62
2023/02/22 00:33:15;;;;;;;24.58;5.07;;;;;;;8.23;81.17;100948.22;5006815;28;20088;-62
2023/02/22 00:35:44;;;;;;;25.42;4.90;;;;;;;8.24;81.79;100950.78;4992804;28;20168;-62
2023/02/22 00:38:14;;;;;;;37.83;5.28;;;;;;;8.27;82.55;100960.28;4999168;28;20168;-60
2023/02/22 00:40:41;;;;;;;21.20;4.78;;;;;;;8.29;82.86;100959.31;5004667;28;20149;-63
2023/02/22 00:43:08;;;;;;;34.00;4.75;;;;;;;8.33;83.12;100952.13;5007525;28;20091;-63
2023/02/22 00:45:36;;;;;;;35.28;6.10;;;;;;;8.30;82.18;100960.16;5007031;28;20050;-63
2023/02/22 00:48:04;;;;;;;29.25;5.72;;;;;;;8.27;82.12;100958.50;5006192;28;20196;-61
2023/02/22 00:50:32;;;;;;;24.55;4.22;;;;;;;8.27;82.40;100961.13;5003876;28;20524;-63
2023/02/22 00:53:01;;;;;;;23.00;4.90;;;;;;;8.29;82.53;100958.44;4998403;28;20080;-62
2023/02/22 00:55:30;;;;;;;23.67;4.82;;;;;;;8.23;80.68;100953.47;4998133;28;20419;-61
2023/02/22 00:57:58;;;;;;;30.70;5.28;;;;;;;8.18;81.69;100951.03;4989107;28;20129;-60
2023/02/22 01:00:28;;;;;;;27.30;4.75;;;;;;;8.19;81.66;100955.34;5002435;28;20046;-59
2023/02/22 01:02:55;;;;;;;24.05;4.47;;;;;;;8.21;82.55;100957.94;5005496;28;20540;-62
2023/02/22 01:05:27;;;;;;;22.83;4.45;;;;;;;8.22;82.72;100951.75;5005698;28;20156;-61
2023/02/22 01:07:56;;;;;;;28.83;5.10;;;;;;;8.21;83.16;100963.19;4997418;28;20603;-60
2023/02/22 01:10:26;;;;;;;22.00;4.43;;;;;;;8.21;82.95;100957.94;4983248;28;20041;-60
2023/02/22 01:12:54;;;;;;;24.63;4.65;;;;;;;8.20;83.75;100961.47;4999383;28;20048;-63
2023/02/22 01:15:24;;;;;;;26.77;5.32;;;;;;;8.17;83.47;100964.22;4988938;28;20417;-60
2023/02/22 01:17:52;;;;;;;22.75;4.45;;;;;;;8.18;83.42;100960.69;5004939;28;20085;-62
2023/02/22 01:20:30;;;;;;;29.38;4.78;;;;;;;8.18;83.67;100963.31;5005558;28;20156;-62
2023/02/22 01:22:59;;;;;;;18.70;3.75;;;;;;;8.19;83.68;100962.38;5003503;28;20437;-61
2023/02/22 01:25:29;;;;;;;27.83;4.97;;;;;;;8.17;84.12;100957.22;5003657;28;20133;-62
2023/02/22 01:27:58;;;;;;;25.65;4.35;;;;;;;8.15;83.50;100961.69;4995579;28;20108;-61
2023/02/22 01:30:31;;;;;;;27.98;4.70;;;;;;;8.13;83.71;100961.72;4982867;28;20503;-63
2023/02/22 01:33:00;;;;;;;18.80;4.28;;;;;;;8.15;83.52;100960.81;5001158;28;20138;-60
2023/02/22 01:35:29;;;;;;;20.52;4.47;;;;;;;8.15;83.31;100950.31;5001930;28;20049;-61
2023/02/22 01:37:57;;;;;;;20.33;4.35;;;;;;;8.12;83.73;100952.16;5003021;28;20050;-62
2023/02/22 01:40:28;;;;;;;24.75;4.63;;;;;;;8.11;83.70;100945.22;5001983;28;20088;-60
2023/02/22 01:43:02;;;;;;;23.98;4.32;;;;;;;8.11;83.61;100950.47;4998784;28;21018;-62
2023/02/22 01:45:29;;;;;;;21.45;4.88;;;;;;;8.07;84.31;100945.41;4995849;28;20536;-62
2023/02/22 01:48:01;;;;;;;20.50;4.68;;;;;;;8.06;84.45;100947.19;5001426;28;20505;-59
2023/02/22 01:50:28;;;;;;;29.35;5.32;;;;;;;7.96;83.59;100947.63;5001469;28;20149;-60
2023/02/22 01:52:55;;;;;;;22.98;4.85;;;;;;;7.95;84.16;100940.69;4984975;28;20046;-61
2023/02/22 01:55:23;;;;;;;22.67;4.72;;;;;;;7.95;84.46;100941.56;5004951;28;20136;-58
2023/02/22 01:57:51;;;;;;;18.70;4.65;;;;;;;7.94;84.32;100942.47;5003120;28;20190;-62
2023/02/22 02:00:20;;;;;;;21.10;4.75;;;;;;;7.95;84.57;100927.59;5007166;28;20072;-61
2023/02/22 02:02:51;;;;;;;19.67;3.53;;;;;;;7.96;84.36;100931.91;4988690;28;20145;-60
2023/02/22 02:05:18;;;;;;;24.35;4.60;;;;;;;7.91;84.31;100929.50;5005632;28;20052;-60
2023/02/22 02:07:45;;;;;;;18.38;4.07;;;;;;;7.89;84.35;100928.72;5005221;28;20060;-63
2023/02/22 02:10:14;;;;;;;22.73;5.90;;;;;;;7.89;84.73;100930.50;5004103;28;20317;-64
2023/02/22 02:12:45;;;;;;;24.80;5.22;;;;;;;7.89;84.27;100933.97;5007985;28;20130;-60
2023/02/22 02:15:20;;;;;;;26.73;4.28;;;;;;;7.87;84.25;100936.63;5001449;28;20538;-61
2023/02/22 02:17:48;;;;;;;35.08;5.30;;;;;;;7.85;84.25;100935.84;5006888;28;20140;-61
2023/02/22 02:20:24;;;;;;;30.00;5.47;;;;;;;7.82;84.06;100932.50;4988883;28;20612;-64
2023/02/22 02:23:23;;;;;;;22.65;4.63;;;;;;;7.80;84.99;100932.56;4986342;28;20053;-61
2023/02/22 02:26:09;;;;;;;22.05;4.72;;;;;;;7.79;85.04;100930.00;4989467;28;20625;-61
2023/02/22 02:29:08;;;;;;;24.27;4.82;;;;;;;7.77;84.68;100927.44;5003395;28;20057;-62
2023/02/22 02:31:58;;;;;;;20.77;4.78;;;;;;;7.76;84.84;100928.38;4988963;28;20141;-62
2023/02/22 02:34:30;;;;;;;26.33;5.57;;;;;;;7.72;84.48;100928.56;5008651;28;20049;-62
2023/02/22 02:37:20;;;;;;;23.58;5.00;;;;;;;7.68;84.56;100929.63;5006966;28;20050;-63
2023/02/22 02:40:12;;;;;;;27.02;5.55;;;;;;;7.68;84.86;100932.25;4997969;28;20528;-59
2023/02/22 02:42:44;;;;;;;27.13;5.38;;;;;;;7.63;85.30;100927.19;4991487;28;20141;-60
2023/02/22 02:45:16;;;;;;;20.45;5.07;;;;;;;7.59;84.78;100928.22;4988202;28;20073;-62
2023/02/22 02:47:47;;;;;;;23.00;5.82;;;;;;;7.59;84.90;100925.63;4988706;28;20137;-58
2023/02/22 02:50:17;;;;;;;19.63;3.92;;;;;;;7.60;84.97;100922.06;5010940;28;20054;-60
2023/02/22 02:52:45;;;;;;;30.88;5.95;;;;;;;7.60;85.23;100927.31;5009589;28;20569;-60
2023/02/22 02:55:13;;;;;;;24.02;4.78;;;;;;;7.59;85.47;100931.69;4986826;28;20056;-62
2023/02/22 02:57:40;;;;;;;18.10;5.40;;;;;;;7.58;84.95;100919.53;4981893;28;20060;-58
2023/02/22 03:00:24;;;;;;;28.35;6.07;;;;;;;7.56;84.89;100925.72;4993937;28;20057;-62
2023/02/22 03:03:09;;;;;;;20.05;5.10;;;;;;;7.55;84.65;100924.88;5005995;28;20085;-59
2023/02/22 03:05:47;;;;;;;25.92;5.68;;;;;;;7.53;84.78;100926.72;4987127;28;20057;-61
2023/02/22 03:08:33;;;;;;;24.80;5.82;;;;;;;7.55;84.92;100926.66;4990877;28;20050;-59
2023/02/22 03:11:13;;;;;;;29.88;5.40;;;;;;;7.56;85.39;100923.97;4992296;28;20066;-61
2023/02/22 03:13:44;;;;;;;21.42;5.07;;;;;;;7.58;85.16;100916.91;4983200;28;20049;-61
2023/02/22 03:16:37;;;;;;;18.95;4.88;;;;;;;7.60;85.44;100922.06;4988110;28;20129;-59
2023/02/22 03:19:27;;;;;;;23.17;5.65;;;;;;;7.58;85.25;100919.53;5006905;28;20061;-60
2023/02/22 03:21:58;;;;;;;30.02;5.70;;;;;;;7.55;85.17;100917.03;4988637;28;20056;-61
2023/02/22 03:24:41;;;;;;;28.55;5.72;;;;;;;7.56;85.29;100920.50;4989218;28;20054;-59
2023/02/22 03:27:12;;;;;;;23.33;5.50;;;;;;;7.56;86.22;100918.72;4989314;28;20473;-62
2023/02/22 03:29:42;;;;;;;29.67;6.00;;;;;;;7.54;85.84;100912.69;5004413;28;20129;-60
2023/02/22 03:32:14;;;;;;;21.77;5.25;;;;;;;7.51;85.81;100909.34;4982061;28;20050;-63
2023/02/22 03:34:46;;;;;;;18.60;4.80;;;;;;;7.50;85.86;100912.91;4989888;28;20621;-60
2023/02/22 03:37:16;;;;;;;29.15;5.93;;;;;;;7.53;85.98;100910.16;4986704;28;20054;-61
2023/02/22 03:39:45;;;;;;;20.50;5.07;;;;;;;7.53;86.57;100916.25;4988836;28;20402;-60
2023/02/22 03:42:17;;;;;;;25.35;5.70;;;;;;;7.55;86.76;100914.41;4988087;28;20058;-59
2023/02/22 03:44:44;;;;;;;22.35;4.20;;;;;;;7.57;87.02;100917.81;4987568;28;20609;-60
2023/02/22 03:47:15;;;;;;;22.50;5.38;;;;;;;7.56;86.88;100923.09;5000808;28;20050;-61
2023/02/22 03:49:59;;;;;;;23.17;5.70;;;;;;;7.54;86.64;100920.56;4997145;28;20145;-61
2023/02/22 03:52:26;;;;;;;21.15;5.25;;;;;;;7.56;87.46;100920.50;4987532;28;20048;-61
2023/02/22 03:54:53;;;;;;;23.55;6.03;;;;;;;7.59;87.55;100926.47;5009112;28;20433;-62
2023/02/22 03:57:45;;;;;;;21.90;5.43;;;;;;;7.53;87.69;100921.50;5008855;28;20061;-61
2023/02/22 04:00:17;;;;;;;23.33;5.15;;;;;;;7.55;87.96;100930.13;4982503;28;20054;-62
2023/02/22 04:02:44;;;;;;;20.20;5.38;;;;;;;7.56;88.08;100929.19;5003111;28;20137;-60
2023/02/22 04:05:13;;;;;;;26.33;5.53;;;;;;;7.55;88.04;100924.88;4998942;28;20057;-62
2023/02/22 04:07:41;;;;;;;25.38;5.63;;;;;;;7.48;88.81;100928.69;4997030;28;20070;-58
2023/02/22 04:10:10;;;;;;;31.40;6.18;;;;;;;7.48;88.20;100927.84;5008497;28;20129;-60
2023/02/22 04:12:37;;;;;;;19.63;4.47;;;;;;;7.49;88.84;100932.16;4987703;28;20053;-62
2023/02/22 04:15:06;;;;;;;25.58;5.63;;;;;;;7.49;88.64;100925.16;5003337;28;20133;-62
2023/02/22 04:17:33;;;;;;;25.67;5.40;;;;;;;7.52;89.17;100924.16;5004693;28;20172;-61
2023/02/22 04:20:00;;;;;;;21.63;4.60;;;;;;;7.54;88.84;100925.81;5008142;28;20096;-62
2023/02/22 04:22:27;;;;;;;29.52;5.22;;;;;;;7.54;89.37;100922.34;4997316;28;20060;-60
2023/02/22 04:24:54;;;;;;;21.58;5.28;;;;;;;7.53;89.20;100924.09;5002666;28;20053;-61
2023/02/22 04:27:22;;;;;;;19.38;5.15;;;;;;;7.52;89.24;100919.78;4990921;28;20208;-61
2023/02/22 04:29:49;;;;;;;20.92;5.05;;;;;;;7.52;89.05;100927.66;5005498;28;20443;-60
2023/02/22 04:32:16;;;;;;;27.88;5.63;;;;;;;7.51;89.38;100925.06;5007713;28;20045;-61
2023/02/22 04:34:43;;;;;;;30.77;6.18;;;;;;;7.42;89.49;100925.44;5005038;28;20050;-59
2023/02/22 04:37:11;;;;;;;20.02;4.97;;;;;;;7.36;90.44;100921.31;5006324;28;20578;-61
2023/02/22 04:39:38;;;;;;;16.85;4.00;;;;;;;7.32;89.98;100917.97;4977790;28;20054;-62
2023/02/22 04:42:05;;;;;;;18.33;4.28;;;;;;;7.33;90.35;100919.66;4996950;28;20061;-62
2023/02/22 04:44:32;;;;;;;25.42;5.40;;;;;;;7.35;90.69;100922.25;4986809;28;20054;-61
2023/02/22 04:46:59;;;;;;;22.58;4.05;;;;;;;7.32;89.86;100915.34;5000086;28;20049;-59
2023/02/22 04:49:27;;;;;;;29.13;5.07;;;;;;;7.32;90.44;100919.75;5002909;28;20061;-60
2023/02/22 04:51:54;;;;;;;20.08;4.80;;;;;;;7.33;90.39;100919.66;5000282;28;20068;-60
2023/02/22 04:54:21;;;;;;;21.52;4.65;;;;;;;7.35;90.29;100915.25;5003231;28;20046;-62
2023/02/22 04:56:48;;;;;;;24.08;4.65;;;;;;;7.34;91.08;100915.31;4999710;28;20425;-60
2023/02/22 04:59:15;;;;;;;21.45;5.38;;;;;;;7.34;90.43;100910.91;4997742;28;20057;-60
2023/02/22 05:01:43;;;;;;;23.42;5.30;;;;;;;7.34;90.37;100924.00;4980266;28;20061;-60
2023/02/22 05:04:10;;;;;;;30.75;5.07;;;;;;;7.33;90.50;100913.59;5000556;28;20058;-56
2023/02/22 05:06:37;;;;;;;24.88;5.30;;;;;;;7.34;90.57;100923.16;5003312;28;20527;-62
2023/02/22 05:09:04;;;;;;;25.77;4.18;;;;;;;7.31;91.07;100912.81;5001363;28;20057;-59
2023/02/22 05:11:31;;;;;;;27.38;6.18;;;;;;;7.29;90.38;100914.63;5002754;28;20144;-61
2023/02/22 05:13:59;;;;;;;23.92;5.45;;;;;;;7.28;90.92;100905.06;5002261;28;20384;-60
2023/02/22 05:16:26;;;;;;;22.08;4.40;;;;;;;7.29;91.16;100901.53;5001109;28;20160;-61
2023/02/22 05:18:53;;;;;;;19.23;5.47;;;;;;;7.31;90.75;100902.34;5001339;28;20571;-65
2023/02/22 05:21:20;;;;;;;22.35;5.75;;;;;;;7.32;90.87;100901.41;4998025;28;20054;-62
2023/02/22 05:23:47;;;;;;;23.33;6.07;;;;;;;7.32;91.64;100911.88;5005915;28;20576;-60
2023/02/22 05:26:14;;;;;;;23.83;5.82;;;;;;;7.31;90.62;100911.03;4997660;28;20078;-64
2023/02/22 05:28:42;;;;;;;17.52;4.85;;;;;;;7.26;91.17;100912.16;5001999;28;20061;-62
2023/02/22 05:31:09;;;;;;;29.10;6.10;;;;;;;7.24;90.92;100899.09;5001828;28;20058;-60
2023/02/22 05:33:38;;;;;;;15.05;4.57;;;;;;;7.25;91.05;100905.19;5000279;28;20053;-61
2023/02/22 05:36:06;;;;;;;22.23;5.32;;;;;;;7.26;91.49;100901.66;5004732;28;20089;-62
2023/02/22 05:38:41;;;;;;;22.30;5.82;;;;;;;7.28;91.54;100907.69;5006554;28;20069;-61
2023/02/22 05:41:11;;;;;;;21.75;5.70;;;;;;;7.20;92.10;100912.38;5007735;28;20054;-61
2023/02/22 05:43:39;;;;;;;25.65;6.05;;;;;;;7.14;92.37;100910.84;5006930;28;20148;-59
2023/02/22 05:46:06;;;;;;;23.33;6.15;;;;;;;7.18;92.61;100917.69;5005667;28;20061;-63
2023/02/22 05:48:33;;;;;;;27.73;6.53;;;;;;;7.22;92.90;100914.03;5004829;28;21328;-60
2023/02/22 05:51:02;;;;;;;25.95;6.50;;;;;;;7.25;92.25;100916.53;4994220;28;20048;-62
2023/02/22 05:53:29;;;;;;;24.30;4.75;;;;;;;7.29;92.72;100914.63;5003786;28;20046;-61
2023/02/22 05:55:57;;;;;;;22.77;5.18;;;;;;;7.31;92.87;100918.91;5004438;28;20518;-59
2023/02/22 05:58:24;;;;;;;25.45;5.72;;;;;;;7.33;91.95;100921.44;5005826;28;20136;-59
2023/02/22 06:00:51;;;;;;;18.33;5.47;;;;;;;7.33;92.31;100924.91;5007999;28;20530;-62
2023/02/22 06:03:18;;;;;;;23.83;5.75;;;;;;;7.30;92.78;100917.19;5003037;28;20060;-61
2023/02/22 06:05:45;;;;;;;19.30;5.13;;;;;;;7.30;92.77;100916.34;5009710;28;20064;-59
2023/02/22 06:08:13;;;;;;;28.75;5.95;;;;;;;7.33;92.67;100919.66;5002931;28;20057;-61
2023/02/22 06:10:40;;;;;;;19.02;5.55;;;;;;;7.36;93.11;100927.41;5002602;28;20818;-62
2023/02/22 06:13:07;;;;;;;28.30;6.72;;;;;;;7.38;92.97;100923.88;4983293;28;20054;-61
2023/02/22 06:15:34;;;;;;;29.23;6.78;;;;;;;7.41;93.03;100927.22;5004916;28;20526;-63
2023/02/22 06:18:01;;;;;;;29.38;5.47;;;;;;;7.43;93.52;100933.28;5003257;28;20054;-62
2023/02/22 06:20:29;;;;;;;28.27;6.20;;;;;;;7.45;93.22;100931.44;5003753;28;20058;-60
2023/02/22 06:22:58;;;;;;;24.45;6.00;;;;;;;7.46;93.54;100935.75;5002402;28;20049;-61
2023/02/22 06:25:29;;;;;;;25.40;6.15;;;;;;;7.47;93.35;100936.59;4996198;28;20060;-62
2023/02/22 06:27:57;;;;;;;25.65;5.78;;;;;;;7.47;93.37;100941.81;4996105;28;20495;-61
2023/02/22 06:30:25;;;;;;;33.20;5.85;;;;;;;7.48;93.45;100940.94;4996002;28;20052;-61
2023/02/22 06:32:53;;;;;;;24.58;6.55;;;;;;;7.48;93.48;100939.16;4997284;28;20072;-61
2023/02/22 06:35:21;;;;;;;22.55;6.18;;;;;;;7.50;93.82;100939.94;4993207;22;20507;-62
2023/02/22 06:37:48;;;;;;;28.55;7.10;;;;;;;7.51;93.50;100944.25;4966154;28;20051;-62
2023/02/22 06:40:15;;;;;;;20.73;6.15;;;;;;;7.50;93.13;100950.41;4961297;28;20059;-63
2023/02/22 06:42:43;;;;;;;19.40;5.75;;;;;;;7.51;93.65;100951.28;4964349;28;20120;-62
2023/02/22 06:45:10;;;;;;;32.97;7.72;;;;;;;7.52;93.37;100953.84;4964973;28;20047;-60
2023/02/22 06:47:39;;;;;;;24.75;6.35;;;;;;;7.54;93.57;100956.41;4964096;28;20431;-61
2023/02/22 06:50:09;;;;;;;33.15;7.78;;;;;;;7.49;92.99;100945.25;4962270;28;20683;-62
2023/02/22 06:52:41;;;;;;;24.77;6.13;;;;;;;7.49;94.06;100947.88;4961880;28;20077;-62
2023/02/22 06:55:08;;;;;;;26.05;6.32;;;;;;;7.52;93.71;100959.09;4961923;28;20117;-61
2023/02/22 06:57:35;;;;;;;24.20;5.28;;;;;;;7.53;93.93;100958.16;4959762;28;20141;-62
2023/02/22 07:00:03;;;;;;;22.73;5.65;;;;;;;7.56;93.92;100957.16;4969296;28;20055;-64
2023/02/22 07:02:30;;;;;;;32.17;5.97;;;;;;;7.58;93.16;100956.19;4965333;28;20132;-63
2023/02/22 07:04:57;;;;;;;19.00;6.03;;;;;;;7.61;93.75;100961.31;4961725;28;20136;-62
2023/02/22 07:07:25;;;;;;;24.80;5.90;;;;;;;7.64;93.84;100959.47;4974461;28;20078;-62
2023/02/22 07:09:52;;;;;;;20.15;5.63;;;;;;;7.68;93.18;100961.06;4970625;28;20051;-62
2023/02/22 07:12:19;;;;;;;32.58;6.85;;;;;;;7.70;93.02;100964.47;4968116;28;20081;-61
2023/02/22 07:14:46;;;;;;;24.23;6.32;;;;;;;7.75;93.12;100962.53;4972347;28;20050;-62
2023/02/22 07:17:13;;;;;;;24.38;6.55;;;;;;;7.74;93.15;100966.88;4961906;28;20542;-62
2023/02/22 07:19:40;;;;;;;27.98;6.95;;;;;;;7.74;93.41;100969.50;4968581;28;20182;-62
2023/02/22 07:22:07;;;;;;;30.05;7.22;;;;;;;7.76;93.11;100967.69;4963672;28;20051;-62
2023/02/22 07:24:35;;;;;;;35.70;7.03;;;;;;;7.77;93.50;100969.38;4969864;28;20146;-62
2023/02/22 07:27:02;;;;;;;32.75;7.10;;;;;;;7.80;92.49;100976.28;4967413;28;20054;-62
2023/02/22 07:29:30;;;;;;;21.83;7.05;;;;;;;7.81;93.06;100965.72;4964347;28;20054;-63
2023/02/22 07:31:57;;;;;;;26.73;7.50;;;;;;;7.79;93.24;100971.94;4959513;28;20158;-62
2023/02/22 07:34:24;;;;;;;22.90;6.95;;;;;;;7.83;93.33;100963.03;4966443;28;20047;-62
2023/02/22 07:36:51;;;;;;;24.23;7.00;;;;;;;7.85;92.88;100963.84;4971278;28;20606;-62
2023/02/22 07:39:19;;;;;;;34.50;7.47;;;;;;;7.88;93.13;100971.56;4972555;28;20056;-60
2023/02/22 07:41:46;;;;;;;23.70;6.45;;;;;;;7.90;92.47;100967.09;4961771;28;20052;-61
2023/02/22 07:44:14;;;;;;;20.92;6.10;;;;;;;7.91;92.86;100967.97;4964139;28;20070;-61
2023/02/22 07:46:46;;;;;;;22.58;6.75;;;;;;;7.91;93.09;100968.81;4970859;28;20074;-61
2023/02/22 07:49:13;;;;;;;30.83;7.95;;;;;;;7.94;92.88;100970.47;4968421;28;20065;-61
2023/02/22 07:51:41;;;;;;;24.90;8.05;;;;;;;7.96;93.34;100974.69;4966965;28;20515;-60
2023/02/22 07:54:08;;;;;;;25.50;6.85;;;;;;;8.00;93.21;100972.81;4975376;28;20358;-61
2023/02/22 07:56:35;;;;;;;26.23;7.22;;;;;;;7.96;92.58;100979.09;4968915;28;20062;-62
2023/02/22 07:59:02;;;;;;;32.63;6.93;;;;;;;7.97;92.58;100970.31;4975894;28;20137;-62
2023/02/22 08:01:30;;;;;;;41.55;7.03;;;;;;;7.98;92.92;100972.03;4965568;28;20045;-62
2023/02/22 08:03:57;;;;;;;28.85;6.97;;;;;;;8.01;92.33;100975.34;4965793;28;20053;-63
2023/02/22 08:06:25;;;;;;;28.88;6.40;;;;;;;8.02;91.85;100969.22;4963134;28;20161;-62
2023/02/22 08:08:52;;;;;;;23.27;5.95;;;;;;;8.02;91.65;100974.47;4969416;28;20148;-62
2023/02/22 08:11:19;;;;;;;32.55;6.45;;;;;;;8.03;91.93;100970.91;4962362;28;20074;-62
2023/02/22 08:13:46;;;;;;;32.78;7.03;;;;;;;8.02;91.61;100977.09;4968871;28;20054;-63
2023/02/22 08:16:13;;;;;;;31.67;6.43;;;;;;;8.04;91.00;100970.00;4965958;28;20058;-62
2023/02/22 08:18:41;;;;;;;21.90;6.00;;;;;;;8.03;90.96;100973.53;4976327;28;20142;-61
2023/02/22 08:21:08;;;;;;;29.48;6.28;;;;;;;8.04;91.41;100977.84;4951846;28;20166;-63
2023/02/22 08:23:35;;;;;;;24.83;5.40;;;;;;;8.05;92.24;100976.09;4973496;28;20106;-62
2023/02/22 08:26:06;;;;;;;24.80;6.45;;;;;;;8.07;91.76;100971.66;4964095;28;20054;-61
2023/02/22 08:28:34;;;;;;;28.60;6.55;;;;;;;8.08;91.43;100975.97;4969936;28;20136;-62
2023/02/22 08:31:02;;;;;;;26.10;6.57;;;;;;;8.10;91.16;100971.50;4973584;28;20661;-60
2023/02/22 08:33:29;;;;;;;36.38;9.07;;;;;;;8.10;90.98;100974.13;4964420;28;20134;-61
2023/02/22 08:35:56;;;;;;;25.45;6.50;;;;;;;8.11;90.57;100965.34;4961852;28;20525;-62
2023/02/22 08:38:27;;;;;;;25.70;5.38;;;;;;;8.12;91.35;100967.91;4965630;28;20049;-61
2023/02/22 08:40:54;;;;;;;37.38;7.20;;;;;;;8.08;91.28;100974.19;4962519;28;20492;-62
2023/02/22 08:43:22;;;;;;;24.65;6.57;;;;;;;8.09;90.80;100973.25;4962819;28;20181;-62
2023/02/22 08:45:50;;;;;;;27.48;6.60;;;;;;;8.11;90.57;100971.44;4965301;28;20054;-62
2023/02/22 08:48:18;;;;;;;32.67;7.35;;;;;;;8.13;91.11;100974.84;4967518;28;20484;-63
2023/02/22 08:50:46;;;;;;;25.73;6.13;;;;;;;8.17;90.66;100972.09;4963909;28;20059;-62
2023/02/22 08:53:14;;;;;;;30.52;6.28;;;;;;;8.18;90.46;100971.16;4963144;28;20146;-62
2023/02/22 08:55:41;;;;;;;22.75;5.57;;;;;;;8.19;90.35;100970.25;4965301;28;20049;-62
2023/02/22 08:58:09;;;;;;;28.70;5.85;;;;;;;8.21;90.56;100971.03;4965598;28;20373;-63
2023/02/22 09:00:37;;;;;;;24.60;6.25;;;;;;;8.22;90.28;100970.13;4962612;28;20058;-63
2023/02/22 09:03:07;;;;;;;34.92;7.22;;;;;;;8.23;90.29;100969.19;4964592;28;20070;-63
2023/02/22 09:05:35;;;;;;;32.63;7.57;;;;;;;8.25;90.02;100970.00;4967829;28;20142;-62
2023/02/22 09:08:04;;;;;;;34.97;5.95;;;;;;;8.28;89.79;100972.47;4957383;28;20158;-61
2023/02/22 09:10:33;;;;;;;28.92;5.97;;;;;;;8.27;90.09;100974.25;4963042;28;20165;-64
2023/02/22 09:13:02;;;;;;;25.85;5.55;;;;;;;8.30;90.46;100973.25;4969019;28;20416;-62
2023/02/22 09:15:30;;;;;;;35.78;6.53;;;;;;;8.33;90.12;100971.38;4965547;28;20073;-62
2023/02/22 09:17:58;;;;;;;30.55;6.72;;;;;;;8.35;89.55;100969.50;4954646;28;20146;-63
2023/02/22 09:20:26;;;;;;;35.72;6.10;;;;;;;8.40;89.69;100981.59;4968139;28;20472;-62
2023/02/22 09:22:54;;;;;;;30.35;7.00;;;;;;;8.40;89.56;100974.59;4970032;28;20046;-61
2023/02/22 09:25:21;;;;;;;28.52;6.32;;;;;;;8.42;89.99;100969.25;4960729;28;20046;-62
2023/02/22 09:27:50;;;;;;;26.15;6.60;;;;;;;8.43;90.01;100971.00;4960441;28;20057;-63
2023/02/22 09:30:25;;;;;;;31.85;6.90;;;;;;;8.48;89.30;100972.47;4961441;28;20059;-63
2023/02/22 09:32:55;;;;;;;28.27;6.25;;;;;;;8.49;90.04;100973.31;4966111;28;20141;-64
2023/02/22 09:35:28;;;;;;;26.77;5.50;;;;;;;8.53;89.60;100967.88;4963576;28;20164;-62
2023/02/22 09:37:57;;;;;;;33.05;6.20;;;;;;;8.59;88.57;100961.50;4962955;28;20073;-63
2023/02/22 09:40:29;;;;;;;29.33;6.07;;;;;;;8.60;88.50;100971.06;4966044;28;20129;-61
2023/02/22 09:43:18;;;;;;;28.95;5.78;;;;;;;8.66;88.64;100962.09;4965290;28;20073;-64
2023/02/22 09:45:56;;;;;;;29.77;6.45;;;;;;;8.72;88.66;100969.66;4963850;28;20061;-61
2023/02/22 09:48:24;;;;;;;27.67;5.88;;;;;;;8.75;88.38;100962.50;4962687;28;20047;-63
2023/02/22 09:50:52;;;;;;;33.47;6.90;;;;;;;8.80;88.22;100964.91;4967104;28;20042;-62
2023/02/22 09:53:34;;;;;;;24.63;5.88;;;;;;;8.85;88.35;100952.44;4962514;28;20073;-60
2023/02/22 09:56:10;;;;;;;36.67;5.95;;;;;;;8.84;87.82;100951.56;4966310;28;20191;-62
2023/02/22 09:58:41;;;;;;;;;;;;;;;8.88;87.80;100947.91;4965382;28;20125;-62
2023/02/22 10:01:37;;;;;;;31.08;5.75;;;;;;;8.91;86.62;100952.13;4966265;28;19930;-61
2023/02/22 10:04:21;;;;;;;29.45;5.78;;;;;;;8.96;86.76;100954.53;4975139;28;20058;-63
2023/02/22 10:07:07;;;;;;;22.70;6.18;;;;;;;8.98;86.91;100950.94;4963460;28;20381;-62
2023/02/22 10:09:41;;;;;;;29.52;6.65;;;;;;;9.02;86.67;100949.88;4961886;28;20426;-63
2023/02/22 10:12:13;;;;;;;26.35;5.50;;;;;;;9.09;87.53;100950.41;4966877;28;20396;-63
2023/02/22 10:15:17;;;;;;;26.95;7.60;;;;;;;9.13;86.94;100949.34;4973499;28;20835;-63
2023/02/22 10:18:20;;;;;;;29.08;6.28;;;;;;;9.13;86.71;100950.19;4963509;28;20415;-62
2023/02/22 10:21:06;;;;;;;28.63;6.85;;;;;;;9.18;86.93;100943.88;4963934;28;20065;-63
2023/02/22 10:24:06;;;;;;;33.05;6.13;;;;;;;9.27;86.57;100946.06;4961089;28;20051;-61
2023/02/22 10:26:40;;;;;;;28.85;6.22;;;;;;;9.34;86.23;100947.47;4958310;28;20693;-62
2023/02/22 10:29:38;;;;;;;25.08;6.13;;;;;;;9.42;86.23;100945.34;4963496;28;20133;-62
2023/02/22 10:32:10;;;;;;;26.52;6.60;;;;;;;9.45;86.48;100937.28;4970990;28;20133;-62
2023/02/22 10:34:52;;;;;;;27.02;7.05;;;;;;;9.49;85.62;100935.34;4967785;28;20137;-62
2023/02/22 10:37:33;;;;;;;30.95;6.22;;;;;;;9.56;85.01;100940.25;4968191;28;20138;-63
2023/02/22 10:40:11;;;;;;;22.25;5.22;;;;;;;9.64;85.08;100938.09;4967399;28;20266;-63
2023/02/22 10:42:38;;;;;;;28.95;6.40;;;;;;;9.73;84.94;100941.19;4963098;28;20047;-62
2023/02/22 10:45:18;;;;;;;25.92;6.03;;;;;;;9.79;84.40;100928.56;4970243;28;20137;-63
2023/02/22 10:47:45;;;;;;;18.80;4.70;;;;;;;9.88;84.07;100935.97;4988284;28;20050;-63
2023/02/22 10:50:13;;;;;;;18.40;4.50;;;;;;;9.95;83.95;100935.66;4964638;28;20150;-62
2023/02/22 10:52:41;;;;;;;28.77;5.70;;;;;;;9.92;82.72;100931.44;4961876;28;20057;-63
2023/02/22 10:55:12;;;;;;;22.13;5.00;;;;;;;9.89;82.56;100935.06;4969195;28;20105;-62
2023/02/22 10:57:48;;;;;;;24.15;5.25;;;;;;;9.84;82.41;100923.91;4968222;28;20047;-61
2023/02/22 11:00:38;;;;;;;25.98;5.55;;;;;;;9.87;81.88;100930.81;4960254;28;20457;-64
2023/02/22 11:03:16;;;;;;;27.63;5.35;;;;;;;9.87;82.22;100936.06;4959901;28;20162;-62
2023/02/22 11:05:43;;;;;;;21.67;4.53;;;;;;;9.82;81.55;100930.19;4971156;28;20058;-61
2023/02/22 11:08:20;;;;;;;30.48;5.05;;;;;;;9.77;80.80;100926.94;4968278;28;20138;-61
2023/02/22 11:10:49;;;;;;;26.27;4.95;;;;;;;9.80;80.96;100929.41;4964496;28;22032;-60
2023/02/22 11:13:26;;;;;;;19.20;4.13;;;;;;;9.81;79.01;100931.09;4972675;28;20058;-62
2023/02/22 11:16:24;;;;;;;21.85;5.20;;;;;;;9.73;78.81;100922.78;4968493;28;20057;-62
2023/02/22 11:19:25;;;;;;;25.17;4.25;;;;;;;9.73;79.78;100925.41;4970112;28;20046;-62
2023/02/22 11:21:55;;;;;;;25.85;6.22;;;;;;;9.72;79.86;100927.16;4978027;28;20081;-63
2023/02/22 11:24:25;;;;;;;21.73;5.53;;;;;;;9.73;79.96;100928.03;4971179;28;20133;-63
2023/02/22 11:27:01;;;;;;;27.05;5.38;;;;;;;9.73;79.86;100923.63;4974100;28;20069;-63
2023/02/22 11:29:36;;;;;;;31.60;6.28;;;;;;;9.71;79.67;100920.22;4977830;28;20058;-62
2023/02/22 11:32:14;;;;;;;29.15;6.15;;;;;;;9.69;79.30;100918.59;4973727;28;20482;-61
2023/02/22 11:34:44;;;;;;;22.08;4.57;;;;;;;9.72;79.81;100919.28;4975410;28;20061;-62
2023/02/22 11:37:16;;;;;;;21.02;4.80;;;;;;;9.75;79.99;100910.41;4960530;28;20200;-64
2023/02/22 11:39:43;;;;;;;29.35;6.38;;;;;;;9.76;79.39;100910.31;4964756;28;20156;-63
2023/02/22 11:42:26;;;;;;;25.10;5.55;;;;;;;9.76;79.89;100906.84;4966906;28;20142;-63